Terminal Aerodrome Forecast
Issued by NWS Shreveport, LA

Home | Current Version | Previous Version | Text Only | Print | Product List | Glossary On
Versions: 1 2 3 4 5 6 7 8 9 10 11 12 13 14
000
FTUS44 KSHV 012300 RRA
TAFELD
TAF
KELD 012342Z 0200/0224 02004KT 3SM BR BKN007 OVC011
      TEMPO 0200/0204 1 1/2SM -DZ BR OVC006
     FM020400 02003KT 4SM BR OVC007
     FM021400 05004KT P6SM SCT008 OVC015
     FM021900 05006KT P6SM BKN023
     FM022100 05006KT P6SM BKN035=

USA.gov is the U.S. government's official web portal to all federal, state and local government web resources and services.